Time;durP1;ratioP1;P1;durP2;ratioP2;P2;SDS_P1;SDS_P2;PMS_P1;PMS_P2;Temp;Humidity;BMP_temperature;BMP_pressure;BME280_temperature;BME280_humidity;BME280_pressure;Samples;Min_cycle;Max_cycle;Signal;HPM_P1;HPM_P2
2021/07/16 00:01:50;;;;;;;12.58;8.20;;;;;;;20.36;97.75;98670.78;4304642;81;21482;-79
2021/07/16 00:07:51;;;;;;;14.53;8.75;;;;;;;20.29;97.54;98659.91;4304296;81;21598;-80
2021/07/16 00:13:52;;;;;;;13.00;9.18;;;;;;;20.22;97.88;98692.09;4280285;80;21031;-81
2021/07/16 00:19:54;;;;;;;11.25;8.53;;;;;;;20.20;98.33;98695.31;4473897;78;21047;-80
2021/07/16 00:25:57;;;;;;;19.90;7.53;;;;;;;20.23;98.23;98709.55;4468972;78;20998;-80
2021/07/16 00:31:58;;;;;;;17.15;8.03;;;;;;;20.20;98.56;98716.80;4474766;78;21041;-80
2021/07/16 00:37:59;;;;;;;10.82;7.67;;;;;;;20.10;97.90;98731.16;4461845;78;21093;-80
2021/07/16 00:44:02;;;;;;;15.43;7.75;;;;;;;19.97;98.62;98737.31;4438151;78;21057;-80
2021/07/16 00:50:08;;;;;;;17.65;9.18;;;;;;;19.92;97.80;98748.97;4392885;79;21070;-80
2021/07/16 00:56:09;;;;;;;13.30;7.77;;;;;;;19.88;98.03;98755.25;4392446;79;21073;-80
2021/07/16 01:02:12;;;;;;;12.68;8.08;;;;;;;19.89;98.62;98740.73;4396847;79;21003;-79
2021/07/16 01:08:14;;;;;;;18.23;7.95;;;;;;;19.76;98.40;98743.49;4304226;81;21070;-79
2021/07/16 01:14:16;;;;;;;13.03;7.97;;;;;;;19.74;98.99;98739.02;4401098;79;20990;-80
2021/07/16 01:20:22;;;;;;;11.30;7.67;;;;;;;19.76;98.50;98739.33;4393269;79;21039;-80
2021/07/16 01:26:24;;;;;;;12.93;7.72;;;;;;;19.78;99.02;98752.80;4396594;79;21098;-80
2021/07/16 01:32:27;;;;;;;23.50;7.83;;;;;;;19.65;98.17;98770.82;4399002;79;21511;-80
2021/07/16 01:38:28;;;;;;;13.48;8.18;;;;;;;19.59;99.12;98773.19;4398660;79;21013;-81
2021/07/16 01:44:30;;;;;;;13.45;7.78;;;;;;;19.69;99.22;98785.38;4414955;77;21101;-80
2021/07/16 01:50:33;;;;;;;13.05;7.72;;;;;;;19.69;99.02;98797.87;4450661;78;21551;-80
2021/07/16 01:56:35;;;;;;;15.60;8.00;;;;;;;19.57;98.98;98799.22;4445759;78;21035;-80
2021/07/16 02:02:52;;;;;;;15.25;7.70;;;;;;;19.63;99.52;98803.80;4453886;78;21089;-80
2021/07/16 02:08:55;;;;;;;18.02;8.28;;;;;;;19.68;99.89;98812.19;4443150;78;21594;-81
2021/07/16 02:14:56;;;;;;;16.10;8.40;;;;;;;19.83;99.87;98795.28;4458366;78;21526;-80
2021/07/16 02:20:57;;;;;;;12.07;7.67;;;;;;;19.70;99.25;98795.25;4441391;78;21125;-80
2021/07/16 02:26:59;;;;;;;14.70;7.50;;;;;;;19.63;99.41;98791.91;4440828;78;21114;-80
2021/07/16 02:33:01;;;;;;;18.95;6.95;;;;;;;19.53;99.52;98784.67;4448141;78;20959;-80
2021/07/16 02:39:03;;;;;;;18.15;7.37;;;;;;;19.52;99.70;98788.05;4446146;78;21571;-83
2021/07/16 02:45:09;;;;;;;11.22;7.17;;;;;;;19.41;99.59;98781.22;4465689;78;21025;-80
2021/07/16 02:51:10;;;;;;;14.35;6.97;;;;;;;19.38;99.37;98779.33;4472655;78;21120;-81
2021/07/16 02:57:12;;;;;;;14.47;7.50;;;;;;;19.40;100.00;98774.91;4494684;78;20997;-80
2021/07/16 03:03:13;;;;;;;11.57;7.20;;;;;;;19.57;100.00;98765.90;4488731;78;20999;-80
2021/07/16 03:26:18;;;;;;;8.95;5.60;;;;;;;20.00;99.14;98725.91;4660244;74;23517;-86
2021/07/16 03:32:20;;;;;;;16.95;5.78;;;;;;;19.60;99.03;98720.59;4582383;75;21663;-86
2021/07/16 03:38:23;;;;;;;14.38;5.72;;;;;;;19.44;99.37;98713.13;4582923;75;21005;-85
2021/07/16 03:44:26;;;;;;;13.22;5.92;;;;;;;19.55;99.88;98705.27;4604558;75;21367;-86
2021/07/16 03:50:32;;;;;;;16.93;6.22;;;;;;;19.50;99.14;98699.46;4583866;75;20989;-86
2021/07/16 03:56:33;;;;;;;13.80;6.03;;;;;;;19.43;99.48;98702.45;4604669;75;20983;-86
2021/07/16 04:02:36;;;;;;;7.72;5.85;;;;;;;19.52;99.59;98710.91;4610146;75;21559;-86
2021/07/16 04:08:38;;;;;;;9.15;6.00;;;;;;;19.58;99.29;98724.41;4599976;75;20976;-86
2021/07/16 04:14:45;;;;;;;12.23;8.05;;;;;;;19.53;99.42;98727.13;4585054;75;20979;-86
2021/07/16 04:20:47;;;;;;;11.90;6.50;;;;;;;19.59;99.63;98743.41;4491945;75;4090874;-85
2021/07/16 04:26:51;;;;;;;13.65;8.33;;;;;;;19.69;99.70;98748.48;4369144;79;21493;-86
2021/07/16 04:33:03;;;;;;;12.95;7.03;;;;;;;19.73;99.51;98757.50;4362253;80;21048;-86
2021/07/16 04:39:05;;;;;;;14.13;7.50;;;;;;;19.70;99.62;98770.26;4297919;81;21058;-86
2021/07/16 04:45:07;;;;;;;16.00;6.20;;;;;;;19.81;100.00;98780.45;4297369;81;21013;-86
2021/07/16 04:51:08;;;;;;;13.70;7.22;;;;;;;19.93;99.96;98778.33;4303810;81;21572;-86
2021/07/16 04:57:11;;;;;;;15.58;6.50;;;;;;;19.94;99.73;98783.25;4312650;81;21022;-86
2021/07/16 05:03:15;;;;;;;13.83;7.42;;;;;;;19.97;99.94;98790.70;4308801;82;21076;-85
2021/07/16 05:09:17;;;;;;;21.50;8.50;;;;;;;20.01;99.95;98801.87;4282343;81;21429;-86
2021/07/16 05:15:22;;;;;;;14.40;9.00;;;;;;;20.07;100.00;98804.89;4269745;81;21006;-86
2021/07/16 05:21:24;;;;;;;12.40;8.50;;;;;;;20.10;99.84;98815.91;4280798;81;21806;-86
2021/07/16 05:27:25;;;;;;;19.30;9.85;;;;;;;20.10;99.81;98818.69;4331008;81;22320;-86
2021/07/16 05:40:11;;;;;;;12.75;8.90;;;;;;;20.28;99.77;98845.20;4328008;81;21041;-87
2021/07/16 05:46:12;;;;;;;16.10;10.38;;;;;;;20.27;99.76;98844.41;4342789;80;21041;-86
2021/07/16 05:52:13;;;;;;;18.12;9.55;;;;;;;20.25;99.63;98847.47;4349145;80;21569;-87
2021/07/16 05:58:22;;;;;;;16.75;9.30;;;;;;;20.29;99.74;98845.35;4345124;80;21625;-87
2021/07/16 06:04:31;;;;;;;13.68;9.48;;;;;;;20.34;99.40;98851.16;4348533;80;21011;-87
2021/07/16 06:10:36;;;;;;;19.60;11.48;;;;;;;20.37;99.27;98867.55;4343508;80;20963;-87
2021/07/16 06:16:39;;;;;;;16.25;9.13;;;;;;;20.39;99.12;98873.45;4346238;80;21001;-87
2021/07/16 06:22:40;;;;;;;13.85;8.90;;;;;;;20.38;98.91;98874.66;4358289;79;35435;-87
2021/07/16 06:28:42;;;;;;;13.62;7.92;;;;;;;20.38;98.87;98880.22;4380083;79;21088;-86
2021/07/16 06:34:43;;;;;;;12.03;7.35;;;;;;;20.38;98.78;98881.00;4374579;79;21011;-87
2021/07/16 06:40:44;;;;;;;12.28;8.15;;;;;;;20.45;99.06;98889.14;4374632;79;21397;-86
2021/07/16 06:46:47;;;;;;;14.15;8.00;;;;;;;20.61;99.14;98882.08;4377465;79;22182;-87
2021/07/16 06:52:48;;;;;;;16.93;9.10;;;;;;;20.79;98.85;98883.70;4371118;79;21543;-87
2021/07/16 06:59:12;;;;;;;15.18;8.15;;;;;;;20.90;98.73;98886.14;4372001;79;21943;-86
2021/07/16 07:05:40;;;;;;;14.78;9.33;;;;;;;21.05;98.52;98877.52;4374681;79;21310;-87
2021/07/16 07:11:45;;;;;;;18.62;8.93;;;;;;;21.19;98.27;98877.08;4376390;79;21544;-87
2021/07/16 07:17:47;;;;;;;12.53;8.78;;;;;;;21.47;98.07;98883.08;4373441;79;21079;-87
2021/07/16 07:23:48;;;;;;;14.05;9.10;;;;;;;21.62;98.01;98877.16;4382401;79;21089;-86
2021/07/16 07:30:12;;;;;;;12.25;8.18;;;;;;;21.83;97.90;98876.45;4317811;81;21011;-86
2021/07/16 07:36:13;;;;;;;19.55;11.53;;;;;;;21.98;97.79;98872.52;4309693;81;21062;-88
2021/07/16 07:42:17;;;;;;;23.30;13.68;;;;;;;22.31;97.71;98869.48;4309779;81;21056;-86
2021/07/16 07:48:17;;;;;;;20.00;12.15;;;;;;;22.60;96.90;98872.14;4376042;79;20989;-87
2021/07/16 07:54:19;;;;;;;17.40;11.12;;;;;;;22.91;96.77;98869.33;4371265;80;21069;-86
2021/07/16 08:00:23;;;;;;;26.23;14.30;;;;;;;23.07;95.51;98880.99;4382080;80;21224;-87
2021/07/16 08:06:24;;;;;;;22.67;14.35;;;;;;;23.04;95.09;98882.53;4359595;80;20979;-87
2021/07/16 08:12:26;;;;;;;19.45;13.03;;;;;;;23.06;94.69;98887.04;4376596;80;21042;-87
2021/07/16 08:18:28;;;;;;;17.30;11.18;;;;;;;23.30;94.71;98876.11;4374039;80;21018;-88
2021/07/16 08:24:30;;;;;;;16.12;11.03;;;;;;;23.61;94.64;98896.33;4370835;80;21007;-87
2021/07/16 08:30:31;;;;;;;15.83;11.08;;;;;;;23.75;93.96;98911.09;4357165;80;21352;-86
2021/07/16 08:36:34;;;;;;;17.05;12.33;;;;;;;23.85;93.00;98916.84;4359783;80;20995;-86
2021/07/16 08:42:36;;;;;;;22.95;14.43;;;;;;;23.65;92.52;98934.69;4360808;80;21614;-87
2021/07/16 08:49:04;;;;;;;;;;;;;;;;;;;;;
2021/07/16 08:54:54;;;;;;;26.93;17.00;;;;;;;23.76;92.82;98933.62;4293896;81;21004;-86
2021/07/16 09:01:13;;;;;;;22.80;15.18;;;;;;;23.88;91.96;98929.25;4320587;81;21091;-87
2021/07/16 09:07:18;;;;;;;24.63;16.45;;;;;;;23.96;91.54;98923.53;4315629;81;20992;-88
2021/07/16 09:13:22;;;;;;;24.40;15.48;;;;;;;24.19;91.28;98915.92;4317467;81;21035;-88
2021/07/16 09:19:34;;;;;;;26.15;18.85;;;;;;;24.18;90.87;98892.62;4364374;80;21519;-87
2021/07/16 09:25:39;;;;;;;28.05;16.42;;;;;;;24.24;90.68;98888.70;4333396;80;21048;-85
2021/07/16 09:31:41;;;;;;;31.85;20.43;;;;;;;24.34;90.35;98898.64;4318157;80;21078;-87
2021/07/16 09:37:53;;;;;;;28.77;18.77;;;;;;;24.42;89.65;98897.69;4302701;81;21031;-87
2021/07/16 09:44:03;;;;;;;26.70;17.92;;;;;;;24.50;89.31;98884.31;4305130;81;21000;-87
2021/07/16 09:50:12;;;;;;;29.05;18.42;;;;;;;24.61;89.38;98882.40;4309212;81;21054;-86
2021/07/16 09:56:23;;;;;;;24.32;17.75;;;;;;;25.42;88.07;98893.25;4289547;81;22288;-87
2021/07/16 10:02:27;;;;;;;27.27;20.10;;;;;;;25.42;88.07;98893.25;4302516;80;21119;-87
2021/07/16 10:08:34;;;;;;;25.40;19.35;;;;;;;25.52;87.40;98891.95;4413227;79;21049;-86
2021/07/16 10:14:35;;;;;;;33.08;24.00;;;;;;;26.28;87.02;98907.23;4407800;79;21009;-86
2021/07/16 10:20:38;;;;;;;38.55;26.97;;;;;;;26.64;85.16;98893.59;4384250;79;22578;-86
2021/07/16 10:26:41;;;;;;;34.08;24.65;;;;;;;26.72;79.41;98893.35;4402252;79;21334;-85
2021/07/16 10:32:48;;;;;;;25.77;21.05;;;;;;;26.77;82.62;98903.13;4403677;79;21084;-85
2021/07/16 10:38:51;;;;;;;23.05;18.85;;;;;;;26.94;82.31;98901.35;4409012;79;21013;-86
2021/07/16 10:45:03;;;;;;;24.65;20.35;;;;;;;27.44;80.97;98898.05;4260546;78;4145508;-86
2021/07/16 10:51:07;;;;;;;26.23;19.70;;;;;;;27.67;79.98;98890.67;4241018;82;20964;-85
2021/07/16 10:57:13;;;;;;;24.27;18.75;;;;;;;28.01;77.38;98894.67;4288630;80;21098;-85
2021/07/16 11:03:15;;;;;;;24.95;17.27;;;;;;;28.20;78.62;98899.50;4285434;82;21655;-84
2021/07/16 11:09:52;;;;;;;23.05;19.27;;;;;;;28.19;77.89;98897.18;4265495;82;21532;-86
2021/07/16 11:16:37;;;;;;;27.37;20.52;;;;;;;28.62;75.63;98898.27;4285665;81;21031;-85
2021/07/16 11:23:06;;;;;;;31.82;23.77;;;;;;;28.12;75.35;98887.13;4299051;81;21152;-85
2021/07/16 11:29:17;;;;;;;25.68;18.57;;;;;;;28.01;74.91;98888.41;4295984;81;21042;-84
2021/07/16 11:35:27;;;;;;;23.90;18.55;;;;;;;28.57;75.42;98887.72;4320373;81;21066;-84
2021/07/16 11:41:33;;;;;;;24.23;18.87;;;;;;;29.10;73.53;98877.25;4309108;80;21085;-85
2021/07/16 11:47:39;;;;;;;25.57;19.57;;;;;;;29.68;72.75;98875.16;4222175;82;21613;-84
2021/07/16 11:53:41;;;;;;;21.62;18.10;;;;;;;29.95;71.81;98873.07;4268005;82;21023;-85
2021/07/16 11:59:53;;;;;;;23.38;18.23;;;;;;;29.88;69.59;98869.31;4376799;79;21493;-85
2021/07/16 12:06:01;;;;;;;19.90;17.37;;;;;;;29.42;69.90;98877.32;4380706;79;21554;-84
2021/07/16 12:12:12;;;;;;;21.70;17.80;;;;;;;29.02;70.15;98880.36;4360886;80;21030;-84
2021/07/16 12:18:18;;;;;;;20.37;17.67;;;;;;;28.81;70.40;98873.31;4361002;80;21593;-85
2021/07/16 12:24:22;;;;;;;22.15;17.67;;;;;;;28.72;68.93;98879.89;4385486;80;21047;-84
2021/07/16 12:30:25;;;;;;;22.87;18.32;;;;;;;28.21;69.87;98877.11;4304553;80;21428;-83
2021/07/16 12:36:34;;;;;;;23.22;17.62;;;;;;;28.25;69.58;98874.86;4273839;82;21019;-80
2021/07/16 12:42:36;;;;;;;24.60;17.35;;;;;;;28.26;68.85;98859.52;4280196;82;21007;-83
2021/07/16 12:48:47;;;;;;;21.80;16.70;;;;;;;28.00;68.94;98856.56;4274828;81;21546;-83
2021/07/16 12:55:13;;;;;;;23.85;18.30;;;;;;;28.16;69.03;98851.09;4286720;82;21056;-84
2021/07/16 13:01:34;;;;;;;22.07;17.37;;;;;;;28.27;68.51;98842.75;4310501;80;21039;-84
2021/07/16 13:07:36;;;;;;;23.12;18.05;;;;;;;28.29;68.72;98828.95;4289945;80;21020;-84
2021/07/16 13:13:38;;;;;;;24.70;18.02;;;;;;;28.36;68.94;98827.73;4292608;80;21031;-84
2021/07/16 13:19:39;;;;;;;26.95;19.77;;;;;;;28.01;68.57;98820.11;4184527;83;21021;-86
2021/07/16 13:25:40;;;;;;;24.32;19.45;;;;;;;27.77;68.79;98809.09;4187969;79;21015;-84
2021/07/16 13:31:41;;;;;;;20.20;17.85;;;;;;;27.66;68.72;98808.97;4187064;84;21760;-84
2021/07/16 13:37:44;;;;;;;24.90;17.98;;;;;;;27.72;69.34;98811.86;4310385;81;21062;-85
2021/07/16 13:43:45;;;;;;;22.27;17.95;;;;;;;27.56;69.12;98809.75;4317759;80;21966;-84
2021/07/16 13:49:47;;;;;;;25.60;18.60;;;;;;;27.33;69.22;98808.58;4223861;82;21045;-85
2021/07/16 13:55:49;;;;;;;24.65;17.87;;;;;;;27.30;69.58;98810.97;4170293;84;21026;-84
2021/07/16 14:01:52;;;;;;;21.95;16.87;;;;;;;27.41;70.24;98820.32;4317085;81;21035;-86
2021/07/16 14:07:53;;;;;;;27.82;17.35;;;;;;;27.54;69.07;98825.58;4320092;81;21045;-84
2021/07/16 14:13:55;;;;;;;21.30;15.88;;;;;;;27.60;69.04;98826.42;4230940;82;22198;-84
2021/07/16 14:19:57;;;;;;;22.50;14.85;;;;;;;27.72;68.97;98830.14;4218677;82;21513;-83
2021/07/16 14:26:04;;;;;;;16.62;13.48;;;;;;;27.74;68.66;98829.77;4225029;82;21057;-84
2021/07/16 14:32:04;;;;;;;21.15;13.15;;;;;;;27.77;68.24;98829.44;4251931;82;21056;-84
2021/07/16 14:38:07;;;;;;;20.52;14.13;;;;;;;27.77;67.83;98823.16;4284980;81;22293;-84
2021/07/16 14:44:09;;;;;;;19.65;13.53;;;;;;;27.73;67.70;98818.39;4279342;79;20998;-84
2021/07/16 14:50:16;;;;;;;16.42;12.60;;;;;;;27.74;67.26;98818.52;4252379;82;21599;-85
2021/07/16 14:56:14;;;;;;;17.70;12.70;;;;;;;27.66;66.41;98805.41;4255167;82;21091;-83
2021/07/16 15:02:15;;;;;;;16.62;12.05;;;;;;;27.60;66.68;98809.55;4294560;82;21018;-82
2021/07/16 15:08:17;;;;;;;14.43;11.05;;;;;;;27.53;65.95;98806.52;4275051;80;21039;-84
2021/07/16 15:14:20;;;;;;;14.95;11.83;;;;;;;27.54;65.94;98802.47;4283977;81;21060;-83
2021/07/16 15:20:23;;;;;;;13.85;11.10;;;;;;;27.51;66.09;98796.43;4283044;82;21002;-84
2021/07/16 15:26:24;;;;;;;12.70;11.08;;;;;;;27.54;65.61;98787.63;4278130;82;21102;-84
2021/07/16 15:32:26;;;;;;;13.98;10.72;;;;;;;27.47;66.03;98785.23;4223209;82;21096;-83
2021/07/16 15:38:27;;;;;;;16.23;10.65;;;;;;;27.39;65.89;98783.48;4227616;82;21048;-84
2021/07/16 15:44:30;;;;;;;13.25;9.78;;;;;;;27.42;65.23;98788.13;4228210;82;21047;-84
2021/07/16 15:50:32;;;;;;;15.15;10.68;;;;;;;27.38;64.82;98781.17;4229885;82;21005;-84
2021/07/16 15:56:36;;;;;;;15.88;10.28;;;;;;;27.28;64.90;98786.81;4225335;82;21049;-84
2021/07/16 16:02:37;;;;;;;12.63;9.85;;;;;;;27.17;64.91;98786.00;4180636;83;21063;-86
2021/07/16 16:08:41;;;;;;;17.25;10.88;;;;;;;27.06;64.66;98784.45;4184655;83;21056;-84
2021/07/16 16:14:42;;;;;;;15.25;11.90;;;;;;;26.96;65.33;98792.88;4179680;83;21057;-84
2021/07/16 16:20:50;;;;;;;12.70;11.38;;;;;;;26.82;65.85;98799.32;4174448;83;21031;-84
2021/07/16 16:27:15;;;;;;;15.88;11.63;;;;;;;26.70;66.39;98795.44;4185216;82;21115;-84
2021/07/16 16:33:17;;;;;;;11.97;10.45;;;;;;;26.58;66.91;98793.05;4250830;82;21067;-84
2021/07/16 16:39:18;;;;;;;16.15;11.33;;;;;;;26.47;67.43;98792.88;4242743;82;21051;-83
2021/07/16 16:45:22;;;;;;;15.05;10.88;;;;;;;26.40;67.96;98800.93;4285554;81;21047;-85
2021/07/16 16:51:23;;;;;;;15.93;11.03;;;;;;;26.34;68.65;98791.03;4176602;80;9999904;-84
2021/07/16 16:57:25;;;;;;;15.48;11.63;;;;;;;26.31;69.44;98789.81;4251308;82;21453;-84
2021/07/16 17:03:28;;;;;;;14.28;10.70;;;;;;;26.21;69.68;98807.38;4250515;82;21130;-83
2021/07/16 17:09:30;;;;;;;15.58;11.03;;;;;;;26.06;70.02;98808.78;4276495;81;22191;-85
2021/07/16 17:15:34;;;;;;;19.00;12.37;;;;;;;25.99;70.21;98813.98;4280730;81;21044;-84
2021/07/16 17:21:41;;;;;;;14.35;12.03;;;;;;;25.88;70.67;98828.58;4282747;81;21103;-84
2021/07/16 17:27:43;;;;;;;18.17;12.45;;;;;;;25.65;70.69;98804.80;4280815;81;21046;-84
2021/07/16 17:33:44;;;;;;;18.27;12.50;;;;;;;25.72;70.99;98833.23;4283396;81;21094;-85
2021/07/16 17:39:46;;;;;;;15.53;11.83;;;;;;;25.57;71.66;98816.23;4264352;81;21125;-84
2021/07/16 17:45:47;;;;;;;18.67;12.58;;;;;;;25.54;72.28;98824.20;4293680;81;21482;-83
2021/07/16 17:51:49;;;;;;;16.02;12.98;;;;;;;25.54;72.68;98810.20;4255695;81;21526;-83
2021/07/16 17:57:52;;;;;;;16.05;11.93;;;;;;;25.54;72.74;98808.79;4295912;81;20983;-83
2021/07/16 18:03:53;;;;;;;17.27;13.08;;;;;;;25.45;72.99;98813.08;4228117;81;21039;-83
2021/07/16 18:09:54;;;;;;;19.23;13.85;;;;;;;25.38;73.35;98814.83;4292927;81;21017;-83
2021/07/16 18:15:55;;;;;;;21.87;13.38;;;;;;;25.31;73.81;98817.33;4291784;80;21477;-84
2021/07/16 18:21:59;;;;;;;17.05;12.82;;;;;;;25.16;74.27;98828.34;4296784;81;22003;-83
2021/07/16 18:28:01;;;;;;;17.15;12.63;;;;;;;25.04;74.81;98825.94;4225890;83;21440;-84
2021/07/16 18:34:03;;;;;;;20.37;13.62;;;;;;;24.91;75.34;98827.40;4127475;85;21016;-83
2021/07/16 18:40:06;;;;;;;19.95;14.05;;;;;;;24.72;75.52;98841.33;4277248;81;21462;-83
2021/07/16 18:46:08;;;;;;;16.90;15.20;;;;;;;24.58;76.08;98857.55;4290296;82;21487;-84
2021/07/16 18:52:10;;;;;;;25.43;14.63;;;;;;;24.45;76.58;98868.16;4285209;83;20991;-83
2021/07/16 18:58:12;;;;;;;19.77;14.78;;;;;;;24.39;77.08;98874.23;4274796;81;21064;-83
2021/07/16 19:04:13;;;;;;;22.75;14.95;;;;;;;24.28;77.40;98871.77;4326681;81;21045;-84
2021/07/16 19:10:16;;;;;;;21.15;15.10;;;;;;;24.13;77.96;98880.66;4279260;82;21520;-84
2021/07/16 19:16:19;;;;;;;24.25;15.32;;;;;;;24.05;78.50;98898.39;4279339;82;21662;-84
2021/07/16 19:22:21;;;;;;;26.60;15.58;;;;;;;23.95;78.77;98898.20;4278236;81;20994;-83
2021/07/16 19:28:23;;;;;;;23.15;16.62;;;;;;;23.76;79.15;98909.86;4278541;81;21107;-83
2021/07/16 19:34:24;;;;;;;23.77;16.48;;;;;;;23.68;79.83;98914.20;4348203;82;21511;-83
2021/07/16 19:40:26;;;;;;;23.35;16.70;;;;;;;23.55;80.23;98910.15;4281814;81;21000;-83
2021/07/16 19:46:28;;;;;;;19.50;16.00;;;;;;;23.50;80.85;98903.77;4278385;82;21662;-83
2021/07/16 19:52:29;;;;;;;23.12;17.60;;;;;;;23.47;81.28;98908.11;4282360;82;20989;-83
2021/07/16 19:58:30;;;;;;;25.80;18.62;;;;;;;23.45;81.61;98899.41;4278106;82;21063;-83
2021/07/16 20:04:32;;;;;;;21.25;16.87;;;;;;;23.37;81.85;98875.19;4218493;82;21551;-83
2021/07/16 20:10:37;;;;;;;25.48;17.23;;;;;;;23.17;82.36;98865.83;4350354;81;20974;-83
2021/07/16 20:16:38;;;;;;;23.95;17.98;;;;;;;22.96;82.95;98877.86;4293138;81;20985;-83
2021/07/16 20:22:40;;;;;;;24.50;18.98;;;;;;;22.82;83.69;98880.44;4276094;82;21398;-83
2021/07/16 20:28:42;;;;;;;27.73;19.17;;;;;;;22.84;84.00;98888.52;4284328;80;21051;-84
2021/07/16 20:34:46;;;;;;;28.92;20.15;;;;;;;22.81;84.35;98883.86;4266885;82;20989;-84
2021/07/16 20:40:48;;;;;;;29.05;21.30;;;;;;;22.75;84.67;98887.70;4288670;80;21076;-83
2021/07/16 20:46:49;;;;;;;32.00;22.07;;;;;;;22.70;84.87;98904.44;4278125;82;21011;-84
2021/07/16 20:52:50;;;;;;;29.52;22.67;;;;;;;22.63;85.25;98913.06;4265863;82;21027;-83
2021/07/16 20:58:55;;;;;;;31.23;21.80;;;;;;;22.53;85.44;98914.27;4271748;81;21082;-83
2021/07/16 21:04:56;;;;;;;31.82;23.10;;;;;;;22.50;86.06;98917.95;4268727;82;21021;-86
2021/07/16 21:11:00;;;;;;;34.85;23.60;;;;;;;22.49;86.22;98917.77;4273797;80;21574;-84
2021/07/16 21:17:03;;;;;;;34.43;26.42;;;;;;;22.43;86.38;98927.17;4263967;82;20996;-83
2021/07/16 21:23:04;;;;;;;35.80;25.77;;;;;;;22.24;86.58;98929.70;4275669;80;21598;-84
2021/07/16 21:29:06;;;;;;;28.83;22.90;;;;;;;22.07;86.93;98938.07;4281802;82;21052;-83
2021/07/16 21:35:07;;;;;;;33.42;23.98;;;;;;;22.00;87.41;98939.73;4267459;81;21082;-85
2021/07/16 21:41:09;;;;;;;30.08;22.40;;;;;;;22.01;87.81;98939.89;4268266;80;21119;-83
2021/07/16 21:47:10;;;;;;;36.83;22.30;;;;;;;21.93;88.05;98951.91;4279924;80;21003;-83
2021/07/16 21:53:12;;;;;;;28.87;20.92;;;;;;;21.93;88.71;98954.70;4276432;82;21006;-84
2021/07/16 21:59:18;;;;;;;26.80;19.17;;;;;;;21.91;89.20;98963.36;4271929;82;21070;-83
2021/07/16 22:05:20;;;;;;;25.15;19.17;;;;;;;21.81;89.45;98957.53;4252175;81;21059;-83
2021/07/16 22:11:21;;;;;;;30.77;19.67;;;;;;;21.74;90.02;98958.52;4273034;82;21032;-84
2021/07/16 22:17:23;;;;;;;29.40;19.70;;;;;;;21.76;89.66;98967.23;4277662;82;21052;-83
2021/07/16 22:23:27;;;;;;;27.60;19.37;;;;;;;21.73;90.16;98956.97;4283775;82;21017;-84
2021/07/16 22:29:31;;;;;;;27.32;18.98;;;;;;;21.77;90.25;98950.67;4289143;80;21066;-83
2021/07/16 22:35:31;;;;;;;29.65;18.85;;;;;;;21.83;90.82;98953.69;4265012;81;21030;-85
2021/07/16 22:41:47;;;;;;;26.48;17.17;;;;;;;21.92;90.69;98951.75;4288572;82;21051;-82
2021/07/16 22:47:50;;;;;;;23.25;17.12;;;;;;;21.83;90.40;98953.08;4294997;81;21026;-83
2021/07/16 22:53:51;;;;;;;29.57;18.32;;;;;;;21.70;90.85;98943.34;4284084;82;21006;-85
2021/07/16 23:00:38;;;;;;;23.90;17.92;;;;;;;21.70;91.53;98930.80;4281604;82;21022;-83
2021/07/16 23:06:40;;;;;;;;;;;;;;;21.78;91.78;98937.53;4295861;81;21019;-83
2021/07/16 23:12:43;;;;;;;;;;;;;;;21.79;92.21;98927.94;4286889;81;20136;-84
2021/07/16 23:18:44;;;;;;;;;;;;;;;21.84;92.63;98889.14;4290044;80;20547;-84
2021/07/16 23:24:45;;;;;;;;;;;;;;;21.91;92.53;98879.75;4293605;82;20134;-85
2021/07/16 23:37:13;;;;;;;;;;;;;;;21.87;92.44;98896.59;4229955;82;20154;-83
2021/07/16 23:43:14;;;;;;;;;;;;;;;21.86;92.69;98875.55;4232600;82;20165;-84
2021/07/16 23:49:16;;;;;;;;;;;;;;;21.82;91.59;98869.91;4199106;83;20170;-83
2021/07/16 23:55:18;;;;;;;;;;;;;;;21.63;91.82;98877.31;4195640;83;20141;-84
